createdAt,value
2022-10-10T00:03:53.033Z,116.54902
2022-10-10T00:08:53.953Z,117.03371
2022-10-10T00:13:55.090Z,117.52113
2022-10-10T00:18:56.012Z,117.52113
2022-10-10T00:23:56.926Z,118.0113
2022-10-10T00:28:57.865Z,118.50425
2022-10-10T00:33:58.799Z,118.50425
2022-10-10T00:38:59.742Z,118.50425
2022-10-10T00:44:00.907Z,118.0113
2022-10-10T00:49:01.828Z,118.0113
2022-10-10T00:54:02.807Z,117.52113
2022-10-10T00:59:03.812Z,118.0113
2022-10-10T01:04:04.767Z,118.0113
2022-10-10T01:09:05.717Z,118.0113
2022-10-10T01:14:06.821Z,118.0113
2022-10-10T01:19:07.828Z,118.0113
2022-10-10T01:24:08.796Z,118.50425
2022-10-10T01:29:09.716Z,118.50425
2022-10-10T01:34:10.631Z,119.0
2022-10-10T01:39:11.905Z,119.0
2022-10-10T01:44:13.257Z,118.50425
2022-10-10T01:49:14.166Z,118.50425
2022-10-10T01:54:15.115Z,118.50425
2022-10-10T01:59:16.060Z,118.50425
2022-10-10T02:04:17.023Z,118.0113
2022-10-10T02:09:17.962Z,118.0113
2022-10-10T02:14:19.198Z,118.0113
2022-10-10T02:19:20.173Z,118.0113
2022-10-10T02:24:21.186Z,118.0113
2022-10-10T02:34:22.627Z,117.52113
2022-10-10T02:39:23.537Z,118.0113
2022-10-10T02:44:24.727Z,118.50425
2022-10-10T02:49:25.665Z,118.50425
2022-10-10T02:54:26.585Z,119.0
2022-10-10T02:59:27.511Z,119.0
2022-10-10T03:04:28.465Z,119.0
2022-10-10T03:09:29.383Z,119.0
2022-10-10T03:14:30.487Z,119.0
2022-10-10T03:19:31.546Z,119.0
2022-10-10T03:24:32.450Z,118.50425
2022-10-10T03:29:33.369Z,118.50425
2022-10-10T03:34:34.317Z,119.0
2022-10-10T03:39:35.311Z,119.0
2022-10-10T03:44:36.406Z,119.0
2022-10-10T03:49:37.334Z,119.0
2022-10-10T03:54:38.269Z,119.49858
2022-10-10T03:59:39.179Z,119.0
2022-10-10T04:04:40.097Z,119.0
2022-10-10T04:09:40.992Z,119.0
2022-10-10T04:14:42.110Z,119.0
2022-10-10T04:19:43.007Z,118.50425
2022-10-10T04:24:43.940Z,119.0
2022-10-10T04:29:45.004Z,118.50425
2022-10-10T04:34:45.995Z,119.0
2022-10-10T04:39:46.968Z,119.0
2022-10-10T04:44:48.313Z,119.0
2022-10-10T04:49:49.243Z,119.0
2022-10-10T04:54:50.257Z,118.50425
2022-10-10T04:59:51.179Z,118.50425
2022-10-10T05:04:52.083Z,119.0
2022-10-10T05:09:53.043Z,119.0
2022-10-10T05:14:54.183Z,119.0
2022-10-10T05:19:55.126Z,119.0
2022-10-10T05:24:56.070Z,119.0
2022-10-10T05:29:56.968Z,119.0
2022-10-10T05:34:57.927Z,118.50425
2022-10-10T05:39:58.857Z,118.50425
2022-10-10T05:45:00.004Z,118.50425
2022-10-10T05:50:00.927Z,118.50425
2022-10-10T05:55:01.883Z,118.50425
2022-10-10T06:00:02.973Z,118.0113
2022-10-10T06:05:03.923Z,118.0113
2022-10-10T06:10:04.857Z,118.50425
2022-10-10T06:15:06.015Z,118.50425
2022-10-10T06:20:06.948Z,118.50425
2022-10-10T06:25:23.951Z,118.50425
2022-10-10T06:30:36.717Z,118.50425
2022-10-10T06:35:37.640Z,118.50425
2022-10-10T06:40:38.546Z,118.0113
2022-10-10T06:45:39.780Z,117.03371
2022-10-10T06:50:40.718Z,116.06704
2022-10-10T06:55:41.633Z,115.58774
2022-10-10T07:00:42.574Z,115.11111
2022-10-10T07:05:43.504Z,114.63712
2022-10-10T07:10:44.440Z,113.69697
2022-10-10T07:15:45.561Z,113.23077
2022-10-10T07:20:46.466Z,114.16575
2022-10-10T07:25:47.432Z,114.63712
2022-10-10T07:30:48.412Z,114.16575
2022-10-10T07:35:49.335Z,114.16575
2022-10-10T07:40:50.305Z,113.23077
2022-10-10T07:45:51.484Z,113.23077
2022-10-10T07:50:52.637Z,112.30601
2022-10-10T07:55:53.599Z,111.3913
2022-10-10T08:00:54.565Z,111.84741
2022-10-10T08:05:55.414Z,111.84741
2022-10-10T08:10:56.380Z,112.30601
2022-10-10T08:15:57.550Z,112.30601
2022-10-10T08:20:58.466Z,111.84741
2022-10-10T08:25:59.396Z,110.93767
2022-10-10T08:31:03.109Z,110.48649
2022-10-10T08:36:06.522Z,110.03774
2022-10-10T08:41:07.582Z,100.743
2022-10-10T08:46:08.720Z,97.61596
2022-10-10T08:51:09.656Z,100.743
2022-10-10T08:56:10.588Z,103.17313
2022-10-10T09:01:12.099Z,102.76289
2022-10-10T09:06:13.441Z,101.54476
2022-10-10T09:11:14.361Z,102.35476
2022-10-10T09:16:15.567Z,101.94872
2022-10-10T09:21:16.516Z,92.43373
2022-10-10T09:26:17.443Z,84.63927
2022-10-10T09:31:18.402Z,84.0
2022-10-10T09:36:19.337Z,82.42697
2022-10-10T09:41:20.339Z,82.42697
2022-10-10T09:46:21.507Z,88.60094
2022-10-10T09:51:22.482Z,88.2623
2022-10-10T09:56:23.439Z,90.66667
2022-10-10T10:01:24.573Z,94.61125
2022-10-10T10:06:25.632Z,96.47525
2022-10-10T10:11:26.574Z,97.23383
2022-10-10T10:16:27.818Z,96.47525
2022-10-10T10:21:29.121Z,98.38596
2022-10-10T10:26:30.054Z,102.76289
2022-10-10T10:31:31.031Z,103.17313
2022-10-10T10:36:31.970Z,101.94872
2022-10-10T10:41:32.890Z,104.0
2022-10-10T10:46:33.987Z,103.17313
2022-10-10T10:51:35.034Z,102.76289
2022-10-10T10:56:36.047Z,101.94872
2022-10-10T11:01:55.920Z,101.14286
2022-10-10T11:12:07.455Z,103.17313
2022-10-10T11:17:08.954Z,101.14286
2022-10-10T11:22:09.887Z,104.0
2022-10-10T11:27:10.850Z,101.54476
2022-10-10T11:32:12.079Z,101.94872
2022-10-10T11:37:13.378Z,102.76289
2022-10-10T11:42:14.334Z,101.94872
2022-10-10T11:47:15.481Z,100.743
2022-10-10T11:52:33.011Z,100.743
2022-10-10T11:57:34.821Z,101.54476
2022-10-10T12:02:35.757Z,103.17313
2022-10-10T12:07:36.707Z,102.35476
2022-10-10T12:12:37.637Z,100.34518
2022-10-10T12:17:38.790Z,98.38596
2022-10-10T12:22:39.757Z,97.23383
2022-10-10T12:27:40.759Z,97.23383
2022-10-10T12:32:41.744Z,98.38596
2022-10-10T12:37:42.652Z,97.23383
2022-10-10T12:42:43.618Z,94.2439
2022-10-10T12:48:03.341Z,96.47525
2022-10-10T12:53:05.993Z,98.77387
2022-10-10T12:58:06.906Z,98.77387
2022-10-10T13:03:07.824Z,98.77387
2022-10-10T13:08:08.749Z,97.23383
2022-10-10T13:13:09.768Z,96.09877
2022-10-10T13:18:10.952Z,94.98039
2022-10-10T13:23:12.244Z,94.98039
2022-10-10T13:28:13.505Z,99.55556
2022-10-10T13:33:14.517Z,99.55556
2022-10-10T13:38:15.812Z,96.47525
2022-10-10T13:43:16.739Z,95.72414
2022-10-10T13:48:17.921Z,95.35135
2022-10-10T13:53:18.933Z,95.35135
2022-10-10T13:58:19.845Z,93.15254
2022-10-10T14:03:20.869Z,92.07692
2022-10-10T14:08:21.878Z,92.79227
2022-10-10T14:13:22.819Z,93.15254
2022-10-10T14:18:23.969Z,93.51456
2022-10-10T14:23:24.964Z,92.79227
2022-10-10T14:28:26.032Z,92.43373
2022-10-10T14:33:27.133Z,93.87835
2022-10-10T14:38:28.064Z,95.72414
2022-10-10T14:43:29.151Z,94.61125
2022-10-10T14:48:30.315Z,94.98039
2022-10-10T14:53:31.256Z,96.09877
2022-10-10T14:58:32.199Z,96.09877
2022-10-10T15:03:33.207Z,96.47525
2022-10-10T15:08:34.204Z,94.98039
2022-10-10T15:13:35.163Z,94.98039
2022-10-10T15:23:48.775Z,95.72414
2022-10-10T15:28:49.683Z,94.2439
2022-10-10T15:33:50.684Z,94.61125
2022-10-10T15:38:51.645Z,93.87835
2022-10-10T15:43:52.947Z,93.15254
2022-10-10T15:48:54.096Z,93.15254
2022-10-10T15:53:55.058Z,92.79227
2022-10-10T15:58:55.954Z,91.72182
2022-10-10T16:03:56.888Z,90.66667
2022-10-10T16:09:16.371Z,90.31829
2022-10-10T16:14:28.190Z,90.31829
2022-10-10T16:19:29.310Z,90.66667
2022-10-10T16:24:30.285Z,91.01671
2022-10-10T16:29:31.269Z,91.01671
2022-10-10T16:34:32.197Z,91.36842
2022-10-10T16:39:33.080Z,91.72182
2022-10-10T16:44:34.009Z,92.07692
2022-10-10T16:49:35.139Z,92.07692
2022-10-10T16:54:36.072Z,92.07692
2022-10-10T16:59:36.990Z,92.43373
2022-10-10T17:04:37.912Z,92.43373
2022-10-10T17:09:38.819Z,92.43373
2022-10-10T17:14:39.772Z,92.43373
2022-10-10T17:19:40.869Z,92.43373
2022-10-10T17:24:41.775Z,92.43373
2022-10-10T17:29:42.718Z,92.43373
2022-10-10T17:34:43.816Z,92.43373
2022-10-10T17:39:44.894Z,92.43373
2022-10-10T17:44:51.430Z,92.79227
2022-10-10T17:49:53.645Z,93.15254
2022-10-10T17:54:54.611Z,93.51456
2022-10-10T17:59:55.535Z,93.51456
2022-10-10T18:04:56.425Z,93.87835
2022-10-10T18:09:57.364Z,94.2439
2022-10-10T18:14:58.313Z,93.87835
2022-10-10T18:19:59.413Z,94.2439
2022-10-10T18:25:00.416Z,94.2439
2022-10-10T18:30:01.394Z,94.2439
2022-10-10T18:35:02.370Z,94.2439
2022-10-10T18:40:03.321Z,94.2439
2022-10-10T18:45:04.278Z,94.61125
2022-10-10T18:50:05.406Z,95.35135
2022-10-10T18:55:06.385Z,96.09877
2022-10-10T19:00:07.312Z,96.8536
2022-10-10T19:05:08.290Z,97.23383
2022-10-10T19:10:09.395Z,97.61596
2022-10-10T19:15:10.319Z,98.0
2022-10-10T19:20:11.418Z,98.38596
2022-10-10T19:25:12.765Z,98.0
2022-10-10T19:30:14.005Z,98.77387
2022-10-10T19:35:14.962Z,99.16373
2022-10-10T19:40:15.905Z,99.16373
2022-10-10T19:45:16.824Z,99.16373
2022-10-10T19:50:17.972Z,99.55556
2022-10-10T19:55:18.882Z,99.16373
2022-10-10T20:00:19.815Z,98.77387
2022-10-10T20:05:20.748Z,98.38596
2022-10-10T20:10:21.670Z,98.38596
2022-10-10T20:15:22.571Z,98.0
2022-10-10T20:20:23.691Z,97.61596
2022-10-10T20:25:24.598Z,98.0
2022-10-10T20:30:25.540Z,98.77387
2022-10-10T20:35:26.450Z,99.16373
2022-10-10T20:40:27.346Z,98.77387
2022-10-10T20:45:28.283Z,98.38596
2022-10-10T20:50:29.540Z,98.38596
2022-10-10T20:55:30.509Z,98.38596
2022-10-10T21:00:31.440Z,98.0
2022-10-10T21:05:32.372Z,98.38596
2022-10-10T21:10:33.359Z,99.16373
2022-10-10T21:15:34.318Z,100.743
2022-10-10T21:20:35.450Z,99.94937
2022-10-10T21:25:36.491Z,99.55556
2022-10-10T21:30:37.643Z,100.34518
2022-10-10T21:35:38.782Z,99.94937
2022-10-10T21:40:39.822Z,99.94937
2022-10-10T21:45:40.934Z,100.743
2022-10-10T21:50:42.192Z,100.743
2022-10-10T21:55:43.200Z,103.17313
2022-10-10T22:00:44.255Z,104.41667
2022-10-10T22:05:45.333Z,102.76289
2022-10-10T22:10:46.307Z,102.76289
2022-10-10T22:15:47.233Z,101.54476
2022-10-10T22:20:48.370Z,100.743
2022-10-10T22:25:49.305Z,100.743
2022-10-10T22:30:50.223Z,101.14286
2022-10-10T22:35:51.360Z,101.94872
2022-10-10T22:40:52.315Z,99.94937
2022-10-10T22:45:53.257Z,98.77387
2022-10-10T22:50:54.464Z,99.94937
2022-10-10T22:55:55.432Z,99.16373
2022-10-10T23:00:56.496Z,99.16373
2022-10-10T23:05:57.491Z,98.77387
2022-10-10T23:10:58.524Z,99.55556
2022-10-10T23:15:59.545Z,101.14286
2022-10-10T23:21:00.730Z,100.743
2022-10-10T23:26:01.938Z,101.14286
2022-10-10T23:31:03.225Z,100.743
2022-10-10T23:36:04.454Z,101.14286
2022-10-10T23:41:06.316Z,101.14286
2022-10-10T23:46:07.964Z,102.35476
2022-10-10T23:51:09.415Z,103.58549
2022-10-10T23:56:10.499Z,103.17313
